Terminal Aerodrome Forecast
Issued by NWS

Home | Current Version | Previous Version | Text Only | Print | Product List | Glossary On
Versions: 1 2 3 4 5 6 7 8 9 10 11 12 13 14 15 16 17 18
000
FTUS41 KBOX 232320
TAFFMH
TAF
KFMH 232320Z 2400/2424 32011G20KT P6SM OVC035
     FM240700 32020G25KT P6SM SCT200
     FM241100 31021G38KT P6SM FEW250
     FM242100 32018G29KT P6SM FEW250=

USA.gov is the U.S. government's official web portal to all federal, state and local government web resources and services.